Time;durP1;ratioP1;P1;durP2;ratioP2;P2;SDS_P1;SDS_P2;PMS_P1;PMS_P2;Temp;Humidity;BMP_temperature;BMP_pressure;BME280_temperature;BME280_humidity;BME280_pressure;Samples;Min_cycle;Max_cycle;Signal;HPM_P1;HPM_P2
2023/08/16 00:00:42;;;;;;;5.13;3.72;;;20.30;99.90;;;;;;6300934;28;20036;-81
2023/08/16 00:03:45;;;;;;;5.57;4.30;;;20.30;99.90;;;;;;6303419;28;20048;-81
2023/08/16 00:06:47;;;;;;;8.57;3.47;;;20.30;99.90;;;;;;6303394;28;20513;-82
2023/08/16 00:09:51;;;;;;;6.45;4.80;;;20.40;99.90;;;;;;6301959;28;20114;-82
2023/08/16 00:12:53;;;;;;;6.63;3.90;;;20.40;99.90;;;;;;6302516;28;20049;-82
2023/08/16 00:15:55;;;;;;;4.63;3.53;;;20.40;99.90;;;;;;6301929;28;20048;-80
2023/08/16 00:18:56;;;;;;;4.97;3.67;;;20.40;99.90;;;;;;6299992;28;20044;-82
2023/08/16 00:22:01;;;;;;;5.07;4.32;;;20.40;99.90;;;;;;6295817;28;20036;-82
2023/08/16 00:25:05;;;;;;;6.10;3.83;;;20.40;99.90;;;;;;6303053;28;20160;-81
2023/08/16 00:28:07;;;;;;;7.53;4.20;;;20.40;99.90;;;;;;6303142;28;20041;-80
2023/08/16 00:31:09;;;;;;;7.07;4.57;;;20.50;99.90;;;;;;6303479;28;20044;-82
2023/08/16 00:34:11;;;;;;;5.03;4.40;;;20.60;99.90;;;;;;6303471;28;20048;-82
2023/08/16 00:37:13;;;;;;;9.57;5.88;;;20.60;99.90;;;;;;6302968;28;20041;-81
2023/08/16 00:40:16;;;;;;;4.32;3.92;;;20.60;99.90;;;;;;6299757;28;20056;-80
2023/08/16 00:43:18;;;;;;;9.05;4.30;;;20.70;99.90;;;;;;6299820;28;20052;-81
2023/08/16 00:46:20;;;;;;;6.95;4.10;;;20.60;99.90;;;;;;6299746;28;20052;-80
2023/08/16 00:49:22;;;;;;;6.53;4.25;;;20.60;99.90;;;;;;6298728;28;20056;-81
2023/08/16 00:52:24;;;;;;;7.18;4.55;;;20.60;99.90;;;;;;6298052;28;20470;-80
2023/08/16 00:55:27;;;;;;;4.35;3.95;;;20.60;99.90;;;;;;6298673;28;20044;-81
2023/08/16 00:58:29;;;;;;;5.05;4.45;;;20.60;99.90;;;;;;6296953;28;20040;-81
2023/08/16 01:01:32;;;;;;;4.88;4.22;;;20.50;99.90;;;;;;6298082;28;20044;-80
2023/08/16 01:04:33;;;;;;;7.30;5.50;;;20.50;99.90;;;;;;6298201;28;20055;-80
2023/08/16 01:07:35;;;;;;;5.82;5.18;;;20.40;99.90;;;;;;6304201;28;20056;-81
2023/08/16 01:10:44;;;;;;;4.82;3.45;;;20.50;99.90;;;;;;6305458;28;20044;-82
2023/08/16 01:13:53;;;;;;;5.20;4.68;;;20.40;99.90;;;;;;6309213;28;20067;-81
2023/08/16 01:16:57;;;;;;;5.03;4.53;;;20.40;99.90;;;;;;6308381;28;20044;-83
2023/08/16 01:20:01;;;;;;;5.55;4.95;;;20.40;99.90;;;;;;6306849;28;20040;-82
2023/08/16 01:23:06;;;;;;;6.15;4.65;;;20.30;99.90;;;;;;6306440;28;20113;-81
2023/08/16 01:26:22;;;;;;;5.70;5.20;;;20.30;99.90;;;;;;6285564;28;20057;-82
2023/08/16 01:29:24;;;;;;;8.15;4.00;;;20.30;99.90;;;;;;6285462;28;20329;-83
2023/08/16 01:32:28;;;;;;;7.07;4.85;;;20.30;99.90;;;;;;6300592;28;20025;-79
2023/08/16 01:35:30;;;;;;;5.88;4.20;;;20.30;99.90;;;;;;6281218;28;20055;-84
2023/08/16 01:38:32;;;;;;;8.07;5.00;;;20.30;99.90;;;;;;6278541;28;20060;-83
2023/08/16 01:41:42;;;;;;;6.78;4.45;;;20.30;99.90;;;;;;6278998;28;20067;-82
2023/08/16 01:44:44;;;;;;;7.07;4.97;;;20.20;99.90;;;;;;6278872;28;20742;-82
2023/08/16 01:47:48;;;;;;;4.90;4.43;;;20.20;99.90;;;;;;6278951;28;20552;-83
2023/08/16 01:50:50;;;;;;;6.35;5.05;;;20.20;99.90;;;;;;6278649;28;20045;-83
2023/08/16 01:53:53;;;;;;;7.25;6.03;;;20.10;99.90;;;;;;6278992;28;20496;-82
2023/08/16 01:56:56;;;;;;;7.78;4.93;;;20.00;99.90;;;;;;6278798;28;20052;-82
2023/08/16 01:59:58;;;;;;;5.72;5.03;;;20.00;99.90;;;;;;6277891;28;20055;-83
2023/08/16 02:02:59;;;;;;;5.10;4.63;;;20.00;99.90;;;;;;6278369;28;20432;-81
2023/08/16 02:06:01;;;;;;;5.82;5.22;;;19.90;99.90;;;;;;6280877;28;20064;-82
2023/08/16 02:09:03;;;;;;;5.43;4.93;;;20.00;99.90;;;;;;6278106;28;20420;-80
2023/08/16 02:12:07;;;;;;;6.63;6.03;;;20.10;99.90;;;;;;6276534;28;20045;-81
2023/08/16 02:15:10;;;;;;;8.82;5.75;;;20.10;99.90;;;;;;6276541;28;20052;-81
2023/08/16 02:18:12;;;;;;;6.43;5.30;;;20.10;99.90;;;;;;6275693;28;20052;-81
2023/08/16 02:21:14;;;;;;;7.07;5.45;;;20.10;99.90;;;;;;6276991;28;20131;-81
2023/08/16 02:24:16;;;;;;;9.55;4.68;;;20.10;99.90;;;;;;6294968;28;20044;-81
2023/08/16 02:27:19;;;;;;;5.53;5.00;;;20.20;99.90;;;;;;6301904;28;20059;-80
2023/08/16 02:30:21;;;;;;;8.10;5.32;;;20.10;99.90;;;;;;6300406;28;20491;-82
2023/08/16 02:33:22;;;;;;;12.70;5.82;;;20.20;99.90;;;;;;6300907;28;20048;-80
2023/08/16 02:36:24;;;;;;;6.97;5.47;;;20.20;99.90;;;;;;6301213;28;20044;-82
2023/08/16 02:39:26;;;;;;;7.05;6.18;;;20.20;99.90;;;;;;6301449;28;20049;-79
2023/08/16 02:42:29;;;;;;;8.98;6.78;;;20.20;99.90;;;;;;6301026;28;20052;-82
2023/08/16 02:45:30;;;;;;;6.80;6.20;;;20.40;99.90;;;;;;6299961;28;20049;-80
2023/08/16 02:48:32;;;;;;;6.95;6.22;;;20.50;99.90;;;;;;6300051;28;20040;-81
2023/08/16 02:51:34;;;;;;;7.32;6.50;;;20.50;99.90;;;;;;6301441;28;20059;-82
2023/08/16 02:54:35;;;;;;;8.18;5.75;;;20.60;99.90;;;;;;6300246;28;20067;-82
2023/08/16 02:57:38;;;;;;;5.75;5.03;;;20.60;99.90;;;;;;6300190;28;20051;-81
2023/08/16 03:00:40;;;;;;;7.53;6.82;;;20.70;99.90;;;;;;6300473;28;20036;-81
2023/08/16 03:03:43;;;;;;;7.70;5.65;;;20.70;99.90;;;;;;6299809;28;20059;-82
2023/08/16 03:06:44;;;;;;;7.50;6.75;;;20.80;99.90;;;;;;6300179;28;20056;-81
2023/08/16 03:09:46;;;;;;;9.35;7.43;;;20.80;99.90;;;;;;6301058;28;20047;-81
2023/08/16 03:12:49;;;;;;;10.00;8.88;;;20.90;99.90;;;;;;6300390;28;20041;-80
2023/08/16 03:15:51;;;;;;;13.70;9.27;;;20.90;99.90;;;;;;6298941;28;20052;-81
2023/08/16 03:18:52;;;;;;;9.32;8.30;;;20.90;99.90;;;;;;6299126;28;20053;-80
2023/08/16 03:21:55;;;;;;;10.30;9.23;;;20.90;99.90;;;;;;6300187;28;20526;-82
2023/08/16 03:24:56;;;;;;;12.13;9.48;;;20.90;99.90;;;;;;6301719;28;20051;-83
2023/08/16 03:27:59;;;;;;;9.80;8.52;;;20.80;99.90;;;;;;6299850;28;20059;-82
2023/08/16 03:31:01;;;;;;;11.27;8.75;;;20.80;99.90;;;;;;6301136;28;20495;-82
2023/08/16 03:34:03;;;;;;;12.40;9.45;;;20.70;99.90;;;;;;6299800;28;20544;-83
2023/08/16 03:37:05;;;;;;;9.43;8.48;;;20.60;99.90;;;;;;6300574;28;20052;-82
2023/08/16 03:40:09;;;;;;;10.30;8.40;;;20.50;99.90;;;;;;6301083;28;20051;-83
2023/08/16 03:43:12;;;;;;;15.88;7.80;;;20.30;99.90;;;;;;6301434;28;20415;-82
2023/08/16 03:46:14;;;;;;;14.30;8.88;;;20.10;99.90;;;;;;6301221;28;20045;-83
2023/08/16 03:49:15;;;;;;;12.25;9.48;;;20.00;99.90;;;;;;6301772;28;20040;-82
2023/08/16 03:52:17;;;;;;;10.85;9.23;;;19.90;99.90;;;;;;6302858;28;20044;-83
2023/08/16 03:55:19;;;;;;;11.80;9.15;;;19.80;99.90;;;;;;6302632;28;20053;-82
2023/08/16 03:58:22;;;;;;;10.68;8.65;;;19.80;99.90;;;;;;6301278;28;20048;-82
2023/08/16 04:01:24;;;;;;;11.52;8.55;;;19.70;99.90;;;;;;6300875;28;20040;-82
2023/08/16 04:04:25;;;;;;;12.82;10.25;;;19.60;99.90;;;;;;6300108;28;20036;-81
2023/08/16 04:07:28;;;;;;;12.45;11.13;;;19.70;99.90;;;;;;6300388;28;20049;-82
2023/08/16 04:10:29;;;;;;;16.83;10.73;;;19.60;99.90;;;;;;6299139;28;20427;-82
2023/08/16 04:13:32;;;;;;;17.05;13.15;;;19.60;99.90;;;;;;6298940;28;20044;-82
2023/08/16 04:16:34;;;;;;;19.70;12.52;;;19.60;99.90;;;;;;6291711;28;20052;-82
2023/08/16 04:19:36;;;;;;;16.95;13.88;;;19.50;99.90;;;;;;6300410;28;20049;-82
2023/08/16 04:22:37;;;;;;;19.88;15.13;;;19.60;99.90;;;;;;6299875;28;20047;-82
2023/08/16 04:25:39;;;;;;;19.92;13.98;;;19.60;99.90;;;;;;6299472;28;20663;-81
2023/08/16 04:28:42;;;;;;;20.65;15.05;;;19.60;99.90;;;;;;6299547;28;20503;-82
2023/08/16 04:31:44;;;;;;;20.83;14.30;;;19.60;99.90;;;;;;6301245;28;20499;-81
2023/08/16 04:34:45;;;;;;;17.92;14.18;;;19.70;99.90;;;;;;6299230;28;20053;-82
2023/08/16 04:37:47;;;;;;;19.88;15.20;;;19.80;99.90;;;;;;6298498;28;20041;-82
2023/08/16 04:40:50;;;;;;;23.40;15.35;;;19.90;99.90;;;;;;6301226;28;20047;-81
2023/08/16 04:43:53;;;;;;;24.58;14.32;;;19.90;99.90;;;;;;6302771;28;20044;-82
2023/08/16 04:46:55;;;;;;;22.65;14.75;;;19.90;99.90;;;;;;6303839;28;20060;-82
2023/08/16 04:49:56;;;;;;;15.98;12.48;;;19.90;99.90;;;;;;6303951;28;20041;-83
2023/08/16 04:52:58;;;;;;;19.02;13.52;;;19.90;99.90;;;;;;6303777;28;20051;-82
2023/08/16 04:56:00;;;;;;;19.42;14.27;;;20.10;99.90;;;;;;6303441;28;20052;-83
2023/08/16 04:59:03;;;;;;;17.00;15.05;;;20.30;99.90;;;;;;6303900;28;20422;-82
2023/08/16 05:02:05;;;;;;;35.28;15.82;;;20.40;99.90;;;;;;6302399;28;20052;-83
2023/08/16 05:05:07;;;;;;;15.57;11.95;;;20.40;99.90;;;;;;6302506;28;20071;-83
2023/08/16 05:08:08;;;;;;;20.90;14.18;;;20.60;99.90;;;;;;6302653;28;20415;-82
2023/08/16 05:11:10;;;;;;;16.35;13.30;;;20.60;99.90;;;;;;6302647;28;20427;-82
2023/08/16 05:14:13;;;;;;;13.90;11.18;;;20.70;99.90;;;;;;6302448;28;20052;-82
2023/08/16 05:17:15;;;;;;;12.27;11.00;;;20.70;99.90;;;;;;6301967;28;20053;-81
2023/08/16 05:20:17;;;;;;;12.93;9.57;;;20.80;99.90;;;;;;6302099;28;20369;-82
2023/08/16 05:23:18;;;;;;;14.10;10.40;;;20.80;99.90;;;;;;6302445;28;20059;-81
2023/08/16 05:26:20;;;;;;;15.82;10.18;;;20.80;99.90;;;;;;6298040;28;20056;-82
2023/08/16 05:29:23;;;;;;;11.27;9.75;;;20.80;99.90;;;;;;6278207;28;20045;-82
2023/08/16 05:32:25;;;;;;;13.55;10.40;;;20.80;99.90;;;;;;6278202;28;20060;-82
2023/08/16 05:35:26;;;;;;;12.88;10.48;;;20.80;99.90;;;;;;6278000;28;20072;-82
2023/08/16 05:38:28;;;;;;;10.60;8.98;;;20.70;99.90;;;;;;6276476;28;20049;-82
2023/08/16 05:41:30;;;;;;;9.63;8.73;;;20.70;99.90;;;;;;6276872;28;20045;-83
2023/08/16 05:44:33;;;;;;;10.82;9.45;;;20.70;99.90;;;;;;6276279;28;20499;-82
2023/08/16 05:47:34;;;;;;;8.82;7.88;;;20.70;99.90;;;;;;6277243;28;20493;-81
2023/08/16 05:50:36;;;;;;;8.98;8.18;;;20.80;99.90;;;;;;6276820;28;20044;-82
2023/08/16 05:53:38;;;;;;;9.40;8.15;;;20.80;99.90;;;;;;6275100;28;20476;-82
2023/08/16 05:56:39;;;;;;;9.13;8.05;;;20.90;99.90;;;;;;6277091;28;20041;-82
2023/08/16 05:59:42;;;;;;;8.57;7.60;;;21.00;99.90;;;;;;6276354;28;20040;-82
2023/08/16 06:02:44;;;;;;;7.10;6.40;;;21.00;99.90;;;;;;6299479;28;20045;-83
2023/08/16 06:05:46;;;;;;;8.35;7.55;;;21.20;99.90;;;;;;6306870;28;20044;-82
2023/08/16 06:08:47;;;;;;;7.80;5.82;;;21.60;99.90;;;;;;6304715;28;20073;-82
2023/08/16 06:11:50;;;;;;;5.97;5.43;;;22.10;99.90;;;;;;6304869;28;20056;-83
2023/08/16 06:14:53;;;;;;;8.70;5.45;;;22.30;99.90;;;;;;6304359;28;20050;-83
2023/08/16 06:17:54;;;;;;;7.80;6.05;;;22.60;99.90;;;;;;6304660;28;20048;-83
2023/08/16 06:20:56;;;;;;;12.38;6.28;;;22.80;99.90;;;;;;6304588;28;20048;-83
2023/08/16 06:23:58;;;;;;;5.60;5.10;;;22.90;99.90;;;;;;6299113;28;20052;-83
2023/08/16 06:27:00;;;;;;;6.60;5.82;;;22.90;99.90;;;;;;6280384;28;20059;-83
2023/08/16 06:30:03;;;;;;;5.63;5.13;;;22.90;99.90;;;;;;6280271;28;20087;-82
2023/08/16 06:33:05;;;;;;;8.05;6.85;;;23.10;99.90;;;;;;6251671;28;20124;-83
2023/08/16 06:36:09;;;;;;;7.13;5.93;;;23.10;99.90;;;;;;6296098;28;20055;-84
2023/08/16 06:39:11;;;;;;;5.88;5.20;;;23.10;99.90;;;;;;6295385;28;20060;-82
2023/08/16 06:42:13;;;;;;;8.73;6.45;;;23.10;99.90;;;;;;6285366;28;20052;-83
2023/08/16 06:45:16;;;;;;;7.25;5.68;;;23.00;99.90;;;;;;6277869;28;20536;-83
2023/08/16 06:48:18;;;;;;;6.30;5.70;;;23.00;99.90;;;;;;6280320;28;20059;-82
2023/08/16 06:51:20;;;;;;;6.38;5.78;;;23.00;99.90;;;;;;6287295;28;20044;-82
2023/08/16 06:54:22;;;;;;;9.57;6.07;;;22.90;99.90;;;;;;6302369;28;20048;-82
2023/08/16 06:57:24;;;;;;;5.97;5.38;;;22.90;99.90;;;;;;6302120;28;20467;-82
2023/08/16 07:00:27;;;;;;;7.38;5.43;;;22.90;99.90;;;;;;6302350;28;20079;-82
2023/08/16 07:03:29;;;;;;;8.68;5.30;;;23.10;99.90;;;;;;6302561;28;20053;-83
2023/08/16 07:06:31;;;;;;;4.97;4.53;;;23.40;99.90;;;;;;6295926;28;20106;-82
2023/08/16 07:09:33;;;;;;;6.80;4.13;;;24.00;99.90;;;;;;6281064;28;20053;-82
2023/08/16 07:12:35;;;;;;;10.90;5.18;;;24.40;99.90;;;;;;6276711;28;20036;-82
2023/08/16 07:15:38;;;;;;;4.28;3.88;;;24.30;99.90;;;;;;6276211;28;20053;-82
2023/08/16 07:18:40;;;;;;;7.82;6.30;;;24.10;99.90;;;;;;6277104;28;20049;-84
2023/08/16 07:21:41;;;;;;;6.72;4.45;;;23.90;99.90;;;;;;6275321;28;20045;-82
2023/08/16 07:24:43;;;;;;;5.90;4.28;;;24.00;99.90;;;;;;6275578;28;20041;-82
2023/08/16 07:27:45;;;;;;;4.00;3.60;;;24.50;99.90;;;;;;6292025;28;20051;-83
2023/08/16 07:30:48;;;;;;;3.97;3.17;;;25.60;99.90;;;;;;6280707;28;20045;-82
2023/08/16 07:33:50;;;;;;;4.55;3.50;;;26.70;99.90;;;;;;6277226;28;20411;-83
2023/08/16 07:36:52;;;;;;;8.57;2.95;;;27.60;99.90;;;;;;6286479;28;20056;-84
2023/08/16 07:39:53;;;;;;;2.83;2.42;;;28.20;99.90;;;;;;6298409;28;20541;-84
2023/08/16 07:42:55;;;;;;;3.22;2.45;;;28.90;99.90;;;;;;6296415;28;20511;-82
2023/08/16 07:45:58;;;;;;;2.28;2.00;;;29.70;99.90;;;;;;6285222;28;20419;-84
2023/08/16 07:49:00;;;;;;;2.92;2.63;;;30.30;99.90;;;;;;6277618;28;20049;-84
2023/08/16 07:52:01;;;;;;;5.88;3.35;;;30.70;99.90;;;;;;6302515;28;20375;-84
2023/08/16 07:55:04;;;;;;;3.55;2.97;;;31.10;99.90;;;;;;6296269;28;20059;-84
2023/08/16 07:58:05;;;;;;;2.60;2.40;;;31.40;99.90;;;;;;6277394;28;20049;-84
2023/08/16 08:01:09;;;;;;;3.22;2.75;;;31.40;99.90;;;;;;6293774;28;20059;-86
2023/08/16 08:04:11;;;;;;;6.25;3.72;;;31.70;99.90;;;;;;6300531;28;20048;-82
2023/08/16 08:07:12;;;;;;;4.70;2.22;;;31.70;99.90;;;;;;6286253;28;20428;-83
2023/08/16 08:10:15;;;;;;;6.07;4.22;;;31.60;99.90;;;;;;6299548;28;20045;-84
2023/08/16 08:13:16;;;;;;;2.83;2.42;;;31.60;99.90;;;;;;6290544;28;20472;-85
2023/08/16 08:16:19;;;;;;;2.95;2.53;;;31.70;99.90;;;;;;6294424;28;20044;-84
2023/08/16 08:19:21;;;;;;;2.97;2.70;;;31.60;99.90;;;;;;6285877;28;20147;-85
2023/08/16 08:22:23;;;;;;;4.53;3.25;;;31.80;99.90;;;;;;6302361;28;20045;-84
2023/08/16 08:25:25;;;;;;;6.68;3.03;;;32.00;99.90;;;;;;6303462;28;20047;-84
2023/08/16 08:28:27;;;;;;;5.45;2.97;;;32.00;99.90;;;;;;6304898;28;20064;-85
2023/08/16 08:31:30;;;;;;;5.57;3.25;;;32.10;99.90;;;;;;6304359;28;20041;-84
2023/08/16 08:34:32;;;;;;;10.70;2.45;;;32.40;99.90;;;;;;6300156;28;20056;-84
2023/08/16 08:37:34;;;;;;;5.13;2.17;;;32.70;99.90;;;;;;6285369;28;20064;-84
2023/08/16 08:40:37;;;;;;;6.35;3.00;;;32.90;99.90;;;;;;6302435;28;20053;-84
2023/08/16 08:43:39;;;;;;;3.15;2.80;;;33.00;99.90;;;;;;6284282;28;20521;-84
2023/08/16 08:46:44;;;;;;;7.07;3.03;;;33.00;99.90;;;;;;6300797;28;20063;-85
2023/08/16 08:49:46;;;;;;;2.83;2.53;;;33.00;99.90;;;;;;6303357;28;20131;-84
2023/08/16 08:52:51;;;;;;;3.28;2.53;;;33.20;99.90;;;;;;6302338;28;20044;-84
2023/08/16 08:55:54;;;;;;;4.07;2.80;;;33.50;99.90;;;;;;6301688;28;20491;-84
2023/08/16 08:58:56;;;;;;;5.53;3.05;;;33.60;99.90;;;;;;6296887;28;20376;-84
2023/08/16 09:02:00;;;;;;;4.07;2.63;;;33.30;99.90;;;;;;6301029;28;20139;-83
2023/08/16 09:05:04;;;;;;;8.32;3.80;;;32.80;99.90;;;;;;6301593;28;20028;-85
2023/08/16 09:08:07;;;;;;;3.95;3.45;;;32.50;99.90;;;;;;6285403;28;20059;-84
2023/08/16 09:11:10;;;;;;;5.32;2.88;;;32.60;99.90;;;;;;6301778;28;20059;-84
2023/08/16 09:14:11;;;;;;;5.13;3.20;;;32.80;99.90;;;;;;6301263;28;20431;-85
2023/08/16 09:17:14;;;;;;;3.40;2.53;;;33.00;99.90;;;;;;6302317;28;20044;-83
2023/08/16 09:20:17;;;;;;;2.70;2.50;;;32.90;99.90;;;;;;6298695;28;20049;-85
2023/08/16 09:23:19;;;;;;;4.72;2.40;;;33.20;99.90;;;;;;6300596;28;20052;-83
2023/08/16 09:26:21;;;;;;;4.45;2.83;;;33.70;99.90;;;;;;6299423;28;20530;-84
2023/08/16 09:29:23;;;;;;;4.20;2.72;;;33.80;99.90;;;;;;6305729;28;20124;-85
2023/08/16 09:32:33;;;;;;;6.28;2.83;;;33.40;99.90;;;;;;6284107;28;20121;-84
2023/08/16 09:35:39;;;;;;;2.97;2.72;;;33.20;99.90;;;;;;6293518;28;20048;-84
2023/08/16 09:38:41;;;;;;;3.25;2.92;;;33.10;99.90;;;;;;6292681;28;20546;-84
2023/08/16 09:41:48;;;;;;;3.90;3.13;;;33.10;99.90;;;;;;6293468;28;20048;-84
2023/08/16 09:44:51;;;;;;;3.05;2.80;;;32.80;99.90;;;;;;6303387;28;20044;-85
2023/08/16 09:47:54;;;;;;;3.35;3.03;;;32.70;99.90;;;;;;6302392;28;20059;-83
2023/08/16 09:51:02;;;;;;;2.80;2.58;;;32.60;99.90;;;;;;6303604;28;20053;-85
2023/08/16 09:54:11;;;;;;;3.83;3.47;;;32.30;99.90;;;;;;6303874;28;20091;-84
2023/08/16 09:57:13;;;;;;;3.63;2.80;;;32.20;99.90;;;;;;6303546;28;20542;-85
2023/08/16 10:00:16;;;;;;;4.45;3.35;;;32.00;99.90;;;;;;6302639;28;20044;-83
2023/08/16 10:03:21;;;;;;;3.08;2.78;;;32.10;99.90;;;;;;6303159;28;20415;-83
2023/08/16 10:06:23;;;;;;;6.85;3.30;;;32.40;99.90;;;;;;6289416;28;20504;-83
2023/08/16 10:09:26;;;;;;;3.50;3.22;;;32.50;99.90;;;;;;6297065;28;20049;-84
2023/08/16 10:12:29;;;;;;;8.05;3.60;;;32.50;99.90;;;;;;6303011;28;20093;-84
2023/08/16 10:15:33;;;;;;;6.40;3.20;;;32.50;99.90;;;;;;6301864;28;20048;-84
2023/08/16 10:18:36;;;;;;;5.47;3.25;;;32.30;99.90;;;;;;6302699;28;20515;-83
2023/08/16 10:21:43;;;;;;;3.88;3.53;;;32.10;99.90;;;;;;6290589;28;20060;-83
2023/08/16 10:24:46;;;;;;;3.65;3.35;;;32.30;99.90;;;;;;6277783;28;20058;-83
2023/08/16 10:27:48;;;;;;;4.43;3.78;;;32.70;99.90;;;;;;6299152;28;20048;-84
2023/08/16 10:30:53;;;;;;;4.70;3.63;;;32.80;99.90;;;;;;6302450;28;20052;-84
2023/08/16 10:33:57;;;;;;;5.03;3.10;;;32.70;99.90;;;;;;6300479;28;20499;-84
2023/08/16 10:36:59;;;;;;;4.93;3.67;;;32.50;99.90;;;;;;6275872;28;20131;-83
2023/08/16 10:40:01;;;;;;;3.90;3.55;;;32.40;99.90;;;;;;6287411;28;20048;-84
2023/08/16 10:43:06;;;;;;;4.38;3.35;;;32.40;99.90;;;;;;6275070;28;20041;-84
2023/08/16 10:46:08;;;;;;;5.07;3.80;;;32.40;99.90;;;;;;6275015;28;20055;-84
2023/08/16 10:49:11;;;;;;;4.25;3.80;;;32.30;99.90;;;;;;6299411;28;20041;-84
2023/08/16 10:52:13;;;;;;;6.20;4.07;;;32.20;99.90;;;;;;6299423;28;20439;-84
2023/08/16 10:55:23;;;;;;;6.07;4.78;;;32.00;99.90;;;;;;6300804;28;20052;-83
2023/08/16 10:58:28;;;;;;;6.25;3.83;;;31.70;99.90;;;;;;6300265;28;20072;-85
2023/08/16 11:01:34;;;;;;;8.77;4.57;;;31.80;99.90;;;;;;6278229;28;20048;-84
2023/08/16 11:04:38;;;;;;;4.65;3.42;;;32.30;99.90;;;;;;6280263;28;20041;-85
2023/08/16 11:07:43;;;;;;;6.03;3.65;;;32.10;99.30;;;;;;6291143;28;20087;-83
2023/08/16 11:10:45;;;;;;;12.38;3.88;;;32.00;99.00;;;;;;6299247;28;20052;-84
2023/08/16 11:13:47;;;;;;;4.50;3.97;;;31.90;99.00;;;;;;6299120;28;20182;-82
2023/08/16 11:16:54;;;;;;;5.30;4.07;;;32.30;98.80;;;;;;6285296;28;20473;-81
2023/08/16 11:20:00;;;;;;;4.70;3.80;;;32.70;96.80;;;;;;6281691;28;20510;-82
2023/08/16 11:23:02;;;;;;;5.15;3.63;;;32.70;95.00;;;;;;6305676;28;20055;-82
2023/08/16 11:26:05;;;;;;;5.57;4.53;;;32.50;94.30;;;;;;6304864;28;20094;-82
2023/08/16 11:29:08;;;;;;;5.05;4.00;;;32.60;94.00;;;;;;6306873;28;20424;-82
2023/08/16 11:32:10;;;;;;;7.22;4.28;;;32.70;93.00;;;;;;6286602;28;20044;-82
2023/08/16 11:35:13;;;;;;;4.20;3.80;;;32.70;92.70;;;;;;6282211;28;20053;-84
2023/08/16 11:38:15;;;;;;;4.47;3.53;;;33.20;92.30;;;;;;6293030;28;20040;-85
2023/08/16 11:41:20;;;;;;;4.10;3.35;;;33.50;91.20;;;;;;6297679;28;20045;-86
2023/08/16 11:44:24;;;;;;;5.50;3.92;;;33.40;90.80;;;;;;6300113;28;20046;-85
2023/08/16 11:47:26;;;;;;;6.93;3.65;;;33.50;90.50;;;;;;6275292;28;20056;-85
2023/08/16 11:50:29;;;;;;;4.10;3.70;;;34.00;89.90;;;;;;6272680;28;20048;-85
2023/08/16 11:53:32;;;;;;;5.40;4.68;;;34.30;88.40;;;;;;6275498;28;20056;-84
2023/08/16 11:56:34;;;;;;;4.30;3.88;;;34.80;86.30;;;;;;6277595;28;20051;-85
2023/08/16 11:59:37;;;;;;;7.55;6.45;;;35.10;85.40;;;;;;6276120;28;20131;-85
2023/08/16 12:02:39;;;;;;;8.32;4.07;;;35.20;82.80;;;;;;6275423;28;20491;-85
2023/08/16 12:05:42;;;;;;;4.45;4.03;;;35.00;82.40;;;;;;6286867;28;20036;-85
2023/08/16 12:08:51;;;;;;;4.22;3.85;;;35.10;82.20;;;;;;6300279;28;20567;-85
2023/08/16 12:11:53;;;;;;;7.95;4.18;;;35.30;81.10;;;;;;6302515;28;20049;-85
2023/08/16 12:14:54;;;;;;;5.00;4.10;;;35.40;79.60;;;;;;6296148;28;20055;-85
2023/08/16 12:17:56;;;;;;;4.03;3.35;;;35.30;78.50;;;;;;6301537;28;20048;-84
2023/08/16 12:21:00;;;;;;;5.97;3.97;;;35.20;77.80;;;;;;6302973;28;20058;-85
2023/08/16 12:24:02;;;;;;;5.93;4.60;;;35.50;76.80;;;;;;6299118;28;20129;-85
2023/08/16 12:27:04;;;;;;;6.45;4.22;;;35.80;75.90;;;;;;6300873;28;20055;-85
2023/08/16 12:30:07;;;;;;;6.68;4.57;;;36.10;74.60;;;;;;6299665;28;20087;-84
2023/08/16 12:33:09;;;;;;;5.97;3.83;;;35.90;73.90;;;;;;6299873;28;20032;-85
2023/08/16 12:36:12;;;;;;;4.22;3.90;;;35.60;74.10;;;;;;6298990;28;20621;-86
2023/08/16 12:39:14;;;;;;;3.47;3.17;;;35.60;73.20;;;;;;6284800;28;20071;-85
2023/08/16 12:42:16;;;;;;;4.45;4.00;;;35.40;73.00;;;;;;6291273;28;20496;-85
2023/08/16 12:45:17;;;;;;;4.32;3.67;;;35.10;74.10;;;;;;6274361;28;20059;-85
2023/08/16 12:48:19;;;;;;;5.90;4.45;;;35.50;73.20;;;;;;6291107;28;20043;-85
2023/08/16 12:51:22;;;;;;;5.80;3.45;;;35.80;72.70;;;;;;6300818;28;20039;-86
2023/08/16 12:54:24;;;;;;;5.75;4.15;;;36.30;71.80;;;;;;6298763;28;20518;-84
2023/08/16 12:57:29;;;;;;;5.32;4.15;;;36.70;70.80;;;;;;6293605;28;20699;-85
2023/08/16 13:00:31;;;;;;;4.35;3.90;;;37.10;69.20;;;;;;6275435;28;20488;-83
2023/08/16 13:03:32;;;;;;;5.00;4.50;;;37.20;68.30;;;;;;6279280;28;20434;-83
2023/08/16 13:06:36;;;;;;;3.97;3.50;;;37.10;68.40;;;;;;6290809;28;20045;-84
2023/08/16 13:09:37;;;;;;;5.85;3.85;;;37.60;67.00;;;;;;6298693;28;20044;-85
2023/08/16 13:12:39;;;;;;;3.47;2.85;;;37.90;66.30;;;;;;6303947;28;20040;-85
2023/08/16 13:15:41;;;;;;;5.85;3.33;;;38.10;65.00;;;;;;6304919;28;20044;-85
2023/08/16 13:18:42;;;;;;;6.15;4.07;;;38.10;64.30;;;;;;6303516;28;20051;-84
2023/08/16 13:21:45;;;;;;;8.10;3.90;;;38.10;64.10;;;;;;6305200;28;20055;-84
2023/08/16 13:24:47;;;;;;;4.57;3.90;;;38.20;63.00;;;;;;6305046;28;20037;-83
2023/08/16 13:27:49;;;;;;;4.45;3.88;;;37.90;63.30;;;;;;6306647;28;20040;-85
2023/08/16 13:30:51;;;;;;;3.88;3.58;;;38.10;63.00;;;;;;6307062;28;20060;-86
2023/08/16 13:33:52;;;;;;;5.47;3.97;;;38.30;62.10;;;;;;6315671;28;20108;-85
2023/08/16 13:36:55;;;;;;;4.90;4.50;;;38.00;61.60;;;;;;6315595;28;20135;-84
2023/08/16 13:39:57;;;;;;;3.95;3.65;;;37.70;62.20;;;;;;6286331;28;20069;-85
2023/08/16 13:42:59;;;;;;;3.35;3.10;;;37.90;62.30;;;;;;6279070;28;20056;-85
2023/08/16 13:46:00;;;;;;;3.67;3.28;;;38.10;62.10;;;;;;6279391;28;20055;-85
2023/08/16 13:49:02;;;;;;;3.60;3.10;;;38.50;61.40;;;;;;6278809;28;20053;-84
2023/08/16 13:52:07;;;;;;;6.70;3.53;;;38.50;61.10;;;;;;6278854;28;20045;-85
2023/08/16 13:55:09;;;;;;;5.57;3.63;;;38.30;61.00;;;;;;6278728;28;20079;-85
2023/08/16 13:58:11;;;;;;;5.20;4.20;;;38.30;61.40;;;;;;6278289;28;20052;-84
2023/08/16 14:01:13;;;;;;;6.28;4.13;;;38.40;60.30;;;;;;6278257;28;20045;-84
2023/08/16 14:04:14;;;;;;;4.00;3.17;;;38.40;60.50;;;;;;6280643;28;20039;-85
2023/08/16 14:07:17;;;;;;;3.70;3.40;;;38.40;60.70;;;;;;6299743;28;20059;-84
2023/08/16 14:10:21;;;;;;;5.53;3.28;;;38.50;60.50;;;;;;6294899;28;20503;-84
2023/08/16 14:13:23;;;;;;;4.38;3.97;;;38.50;59.80;;;;;;6302433;28;20554;-85
2023/08/16 14:16:24;;;;;;;5.55;3.75;;;38.40;59.00;;;;;;6305460;28;20044;-82
2023/08/16 14:19:27;;;;;;;7.15;3.88;;;38.20;59.80;;;;;;6312423;28;20411;-84
2023/08/16 14:22:30;;;;;;;7.50;3.50;;;38.40;59.60;;;;;;6309857;28;20041;-82
2023/08/16 14:25:32;;;;;;;7.97;3.97;;;38.60;59.20;;;;;;6312202;28;20051;-81
2023/08/16 14:28:34;;;;;;;4.32;3.97;;;38.80;59.00;;;;;;6308095;28;20045;-81
2023/08/16 14:31:36;;;;;;;3.85;3.55;;;38.90;58.70;;;;;;6311936;28;20053;-82
2023/08/16 14:34:37;;;;;;;9.65;4.10;;;39.10;58.20;;;;;;6306384;28;20049;-83
2023/08/16 14:37:40;;;;;;;4.32;3.88;;;39.30;58.00;;;;;;6284030;28;20059;-82
2023/08/16 14:40:42;;;;;;;5.75;3.47;;;39.40;57.10;;;;;;6306115;28;20438;-82
2023/08/16 14:43:45;;;;;;;7.15;3.47;;;39.40;56.90;;;;;;6303645;28;20056;-81
2023/08/16 14:46:47;;;;;;;7.65;2.95;;;39.40;57.60;;;;;;6305888;28;20080;-83
2023/08/16 14:49:49;;;;;;;7.40;3.72;;;39.60;56.90;;;;;;6306857;28;20044;-82
2023/08/16 14:52:52;;;;;;;7.57;5.18;;;39.80;56.90;;;;;;6306792;28;20108;-83
2023/08/16 14:55:54;;;;;;;3.80;3.13;;;39.30;56.00;;;;;;6307390;28;20048;-83
2023/08/16 14:58:55;;;;;;;3.58;3.20;;;38.90;56.40;;;;;;6307520;28;20058;-83
2023/08/16 15:01:57;;;;;;;2.17;1.98;;;37.30;53.90;;;;;;6306013;28;20070;-82
2023/08/16 15:04:59;;;;;;;3.15;2.35;;;35.50;53.00;;;;;;6306535;28;20044;-82
2023/08/16 15:08:02;;;;;;;5.13;3.17;;;33.70;53.30;;;;;;6292565;28;20047;-81
2023/08/16 15:11:14;;;;;;;2.65;1.90;;;32.50;55.00;;;;;;6305341;28;20496;-82
2023/08/16 15:14:16;;;;;;;4.00;2.17;;;32.20;56.50;;;;;;6307690;28;20415;-82
2023/08/16 15:17:18;;;;;;;2.22;1.83;;;32.20;56.10;;;;;;6308376;28;20056;-81
2023/08/16 15:20:19;;;;;;;2.97;1.95;;;32.00;56.70;;;;;;6302544;28;20045;-83
2023/08/16 15:23:24;;;;;;;2.72;2.15;;;31.80;56.90;;;;;;6302497;28;20040;-82
2023/08/16 15:26:26;;;;;;;5.30;2.65;;;31.70;57.40;;;;;;6301242;28;20048;-82
2023/08/16 15:29:28;;;;;;;3.58;2.53;;;31.70;57.60;;;;;;6300553;28;20056;-83
2023/08/16 15:32:29;;;;;;;3.05;1.95;;;31.60;57.60;;;;;;6301001;28;20410;-83
2023/08/16 15:35:31;;;;;;;4.03;2.00;;;31.40;58.20;;;;;;6300844;28;20396;-83
2023/08/16 15:38:43;;;;;;;3.55;2.33;;;31.10;58.90;;;;;;6286428;28;20523;-83
2023/08/16 15:41:44;;;;;;;3.67;2.25;;;30.70;60.00;;;;;;6301387;28;20051;-84
2023/08/16 15:44:46;;;;;;;4.60;1.90;;;30.70;60.80;;;;;;6301629;28;20036;-83